Time;durP1;ratioP1;P1;durP2;ratioP2;P2;SDS_P1;SDS_P2;PMS_P1;PMS_P2;Temp;Humidity;BMP_temperature;BMP_pressure;BME280_temperature;BME280_humidity;BME280_pressure;Samples;Min_cycle;Max_cycle;Signal;HPM_P1;HPM_P2
2023/05/17 00:06:09;;;;;;;1.27;0.80;;;;;;;;;;20936867;28;20230;-81
2023/05/17 00:16:11;;;;;;;1.07;0.40;;;;;;;;;;20961805;28;20275;-81
2023/05/17 00:26:12;;;;;;;1.20;0.50;;;;;;;;;;20996709;28;20282;-81
2023/05/17 00:36:15;;;;;;;1.77;0.50;;;;;;;;;;21002611;28;20286;-81
2023/05/17 00:46:17;;;;;;;1.23;0.50;;;;;;;;;;20995251;28;20921;-81
2023/05/17 00:56:19;;;;;;;1.80;0.80;;;;;;;;;;20960516;28;20275;-81
2023/05/17 01:06:21;;;;;;;1.30;0.70;;;;;;;;;;20960388;28;20247;-81
2023/05/17 01:16:30;;;;;;;1.43;0.60;;;12.70;99.90;;;;;;20921271;28;20593;-80
2023/05/17 01:26:38;;;;;;;1.03;0.50;;;;;;;;;;20901392;28;20256;-81
2023/05/17 01:36:41;;;;;;;1.20;0.60;;;;;;;;;;20905433;28;20344;-82
2023/05/17 01:46:44;;;;;;;0.73;0.60;;;;;;;;;;20931559;28;20272;-81
2023/05/17 01:56:56;;;;;;;1.10;0.40;;;12.50;99.90;;;;;;20871982;28;20244;-82
2023/05/17 02:06:58;;;;;;;0.60;0.40;;;;;;;;;;20888313;28;20221;-82
2023/05/17 02:17:01;;;;;;;1.87;0.70;;;;;;;;;;20832285;28;20292;-81
2023/05/17 02:27:02;;;;;;;2.00;0.50;;;;;;;;;;20804363;28;20292;-81
2023/05/17 02:37:06;;;;;;;1.33;0.60;;;;;;;;;;20836885;28;20276;-81
2023/05/17 02:47:08;;;;;;;0.90;0.50;;;;;;;;;;20819351;28;20276;-81
2023/05/17 02:57:10;;;;;;;1.30;0.60;;;;;;;;;;20819006;28;20268;-81
2023/05/17 03:07:12;;;;;;;0.73;0.53;;;;;;;;;;20817791;28;20230;-81
2023/05/17 03:17:17;;;;;;;1.57;0.70;;;;;;;;;;20835541;28;20222;-82
2023/05/17 03:27:19;;;;;;;1.50;0.70;;;;;;;;;;20819031;28;20703;-81
2023/05/17 03:37:21;;;;;;;1.60;0.73;;;;;;;;;;20800421;28;20207;-81
2023/05/17 03:47:24;;;;;;;1.47;0.87;;;;;;;;;;20842895;28;20241;-81
2023/05/17 03:57:27;;;;;;;1.33;0.57;;;;;;;;;;20785302;28;20572;-81
2023/05/17 04:07:32;;;;;;;0.57;0.43;;;;;;;;;;20808440;28;20268;-81
2023/05/17 04:17:35;;;;;;;0.97;0.60;;;;;;;;;;20820125;28;20285;-81
2023/05/17 04:27:37;;;;;;;4.13;0.73;;;;;;;;;;20808116;28;20292;-81
2023/05/17 04:37:41;;;;;;;1.93;0.63;;;;;;;;;;20824485;28;20211;-81
2023/05/17 04:47:54;;;;;;;2.03;1.13;;;;;;;;;;20808083;28;20230;-81
2023/05/17 04:57:57;;;;;;;2.70;1.00;;;;;;;;;;20824907;28;20778;-82
2023/05/17 05:08:00;;;;;;;1.30;0.70;;;;;;;;;;20807823;28;20281;-82
2023/05/17 05:18:03;;;;;;;1.73;0.73;;;11.80;99.90;;;;;;20825118;28;20206;-81
2023/05/17 05:28:05;;;;;;;1.03;0.60;;;;;;;;;;20847206;28;20241;-81
2023/05/17 05:38:07;;;;;;;2.00;0.87;;;;;;;;;;20886602;28;20538;-80
2023/05/17 05:48:13;;;;;;;3.57;0.70;;;12.40;99.90;;;;;;20951072;28;20267;-81
2023/05/17 05:58:15;;;;;;;2.10;1.00;;;;;;;;;;20927017;28;20251;-81
2023/05/17 06:08:17;;;;;;;1.33;0.70;;;;;;;;;;20900115;28;20808;-80
2023/05/17 06:18:19;;;;;;;1.27;0.77;;;;;;;;;;20880013;28;20211;-80
2023/05/17 06:28:21;;;;;;;1.13;0.93;;;;;;;;;;20825318;28;20284;-80
2023/05/17 06:38:22;;;;;;;1.33;0.70;;;13.20;99.90;;;;;;20854867;28;20218;-80
2023/05/17 06:48:24;;;;;;;1.67;1.13;;;;;;;;;;20850692;28;20756;-80
2023/05/17 06:58:26;;;;;;;3.90;0.97;;;;;;;;;;20898110;28;20844;-80
2023/05/17 07:08:28;;;;;;;2.33;0.80;;;;;;;;;;20931422;28;20233;-79
2023/05/17 07:18:29;;;;;;;3.33;0.97;;;;;;;;;;20922167;28;20245;-80
2023/05/17 07:28:32;;;;;;;2.50;1.03;;;;;;;;;;20899831;28;20227;-81
2023/05/17 07:38:34;;;;;;;2.00;0.93;;;;;;;;;;20878955;28;20249;-80
2023/05/17 07:48:36;;;;;;;2.30;1.00;;;;;;;;;;20900017;28;20777;-81
2023/05/17 07:58:39;;;;;;;1.60;0.87;;;;;;;;;;20979245;28;20217;-80
2023/05/17 08:08:41;;;;;;;2.03;1.00;;;;;;;;;;21008803;28;20224;-80
2023/05/17 08:18:42;;;;;;;2.30;0.87;;;;;;;;;;20927574;28;20222;-79
2023/05/17 08:28:44;;;;;;;1.90;0.93;;;;;;;;;;20888092;28;20210;-80
2023/05/17 08:38:46;;;;;;;1.70;0.90;;;;;;;;;;20878109;28;20289;-79
2023/05/17 08:48:52;;;;;;;2.27;0.87;;;;;;;;;;20816272;28;20218;-80
2023/05/17 08:58:57;;;;;;;1.33;0.73;;;;;;;;;;20830896;28;20206;-80
2023/05/17 09:09:00;;;;;;;1.63;0.70;;;;;;;;;;20831178;28;20252;-80
2023/05/17 09:19:02;;;;;;;3.60;1.23;;;;;;;;;;20779908;28;20517;-80
2023/05/17 09:29:07;;;;;;;3.47;1.00;;;;;;;;;;20781426;28;20700;-81
2023/05/17 09:39:10;;;;;;;1.07;0.70;;;;;;;;;;20827210;28;20637;-80
2023/05/17 09:49:12;;;;;;;1.80;0.80;;;15.80;99.90;;;;;;20824196;28;20280;-80
2023/05/17 09:59:14;;;;;;;2.33;0.70;;;15.40;99.90;;;;;;20828116;28;20226;-80
2023/05/17 10:09:21;;;;;;;2.37;0.90;;;15.30;99.90;;;;;;20826848;28;20234;-81
2023/05/17 10:19:24;;;;;;;1.03;0.80;;;15.50;99.90;;;;;;20813047;28;20230;-80
2023/05/17 10:29:26;;;;;;;1.00;0.70;;;;;;;;;;20873417;28;20226;-80
2023/05/17 10:39:28;;;;;;;2.47;0.70;;;17.00;99.90;;;;;;20898948;28;20591;-81
2023/05/17 10:49:32;;;;;;;2.87;0.90;;;16.20;99.90;;;;;;20886675;28;20249;-80
2023/05/17 10:59:34;;;;;;;1.23;0.73;;;;;;;;;;20847964;28;20565;-80
2023/05/17 11:09:36;;;;;;;2.03;0.90;;;;;;;;;;20864664;28;20261;-80
2023/05/17 11:19:37;;;;;;;1.87;0.70;;;;;;;;;;20870051;28;20234;-80
2023/05/17 11:29:41;;;;;;;2.37;0.90;;;;;;;;;;20864518;28;20260;-80
2023/05/17 11:40:11;;;;;;;1.63;0.80;;;17.20;99.90;;;;;;20856698;28;20218;-81
2023/05/17 11:50:15;;;;;;;3.03;0.93;;;;;;;;;;20851614;28;20253;-80
2023/05/17 12:00:26;;;;;;;1.13;0.63;;;;;;;;;;20862007;28;20257;-80
2023/05/17 12:10:32;;;;;;;1.63;0.90;;;;;;;;;;20886774;28;20222;-80
2023/05/17 12:20:34;;;;;;;1.27;0.77;;;;;;;;;;20889382;28;20784;-80
2023/05/17 12:30:36;;;;;;;1.83;1.10;;;;;;;;;;20840469;28;20223;-81
2023/05/17 12:40:39;;;;;;;1.83;1.03;;;17.00;99.90;;;;;;20830162;28;20285;-80
2023/05/17 12:50:45;;;;;;;2.20;1.10;;;;;;;;;;20848572;28;20226;-80
2023/05/17 13:00:56;;;;;;;2.27;0.80;;;;;;;;;;20861268;28;20304;-81
2023/05/17 13:11:14;;;;;;;1.17;0.60;;;19.20;99.90;;;;;;20838355;28;20694;-80
2023/05/17 13:21:16;;;;;;;1.90;1.10;;;;;;;;;;20889650;28;20299;-81
2023/05/17 13:31:17;;;;;;;2.43;0.90;;;;;;;;;;20890497;28;20218;-80
2023/05/17 13:41:19;;;;;;;2.20;1.00;;;;;;;;;;20907008;28;20222;-81
2023/05/17 13:51:21;;;;;;;1.70;0.90;;;;;;;;;;20904860;28;20208;-80
2023/05/17 14:01:22;;;;;;;1.90;0.80;;;;;;;;;;20905449;28;20284;-80
2023/05/17 14:11:24;;;;;;;1.00;0.70;;;;;;;;;;20904596;28;20234;-80
2023/05/17 14:21:26;;;;;;;1.97;0.90;;;;;;;;;;20905006;28;20712;-81
2023/05/17 14:31:31;;;;;;;1.70;0.80;;;;;;;;;;20905432;28;20547;-81
2023/05/17 14:41:32;;;;;;;1.43;0.93;;;;;;;;;;20905502;28;20264;-80
2023/05/17 14:51:37;;;;;;;2.33;0.70;;;;;;;;;;20896636;28;20277;-81
2023/05/17 15:01:38;;;;;;;1.60;1.00;;;;;;;;;;20897644;28;20230;-82
2023/05/17 15:11:40;;;;;;;1.40;0.83;;;;;;;;;;20916925;28;20268;-81
2023/05/17 15:21:43;;;;;;;1.67;0.80;;;;;;;;;;20893302;28;20223;-81
2023/05/17 15:31:45;;;;;;;1.80;0.87;;;;;;;;;;20917745;28;20222;-81
2023/05/17 15:41:47;;;;;;;1.20;0.80;;;;;;;;;;20909142;28;20299;-81
2023/05/17 15:51:48;;;;;;;0.80;0.60;;;;;;;;;;20916103;28;20297;-81
2023/05/17 16:01:50;;;;;;;1.77;0.70;;;;;;;;;;20914590;28;20581;-80
2023/05/17 16:11:52;;;;;;;1.03;0.60;;;;;;;;;;20891820;28;20264;-81
2023/05/17 16:21:53;;;;;;;2.37;1.33;;;;;;;;;;20846328;28;20235;-84
2023/05/17 16:31:56;;;;;;;2.53;1.10;;;;;;;;;;20830638;28;20280;-83
2023/05/17 16:41:57;;;;;;;2.50;0.83;;;;;;;;;;20838367;28;20239;-83
2023/05/17 16:51:59;;;;;;;1.00;0.67;;;;;;;;;;20911955;28;20215;-83
2023/05/17 17:02:02;;;;;;;1.80;0.57;;;19.50;99.90;;;;;;20915322;28;20231;-83
2023/05/17 17:12:05;;;;;;;1.70;0.50;;;;;;;;;;20877769;28;20218;-83
2023/05/17 17:22:08;;;;;;;1.17;0.80;;;;;;;;;;20884504;28;20284;-83
2023/05/17 17:32:10;;;;;;;2.73;0.77;;;;;;;;;;20887110;28;20256;-83
2023/05/17 17:42:11;;;;;;;3.53;0.83;;;;;;;;;;20893430;28;20695;-83
2023/05/17 17:52:13;;;;;;;2.07;0.60;;;;;;;;;;20905268;28;20680;-83
2023/05/17 18:02:15;;;;;;;1.63;0.70;;;;;;;;;;20837187;28;20629;-83
2023/05/17 18:12:17;;;;;;;2.23;0.70;;;;;;;;;;20844225;28;20257;-83
2023/05/17 18:22:18;;;;;;;2.10;0.47;;;;;;;;;;20861870;28;20265;-83
2023/05/17 18:32:20;;;;;;;2.53;0.80;;;;;;;;;;20854918;28;20632;-82
2023/05/17 18:42:23;;;;;;;4.63;0.70;;;;;;;;;;20887549;28;20288;-82
2023/05/17 18:52:25;;;;;;;2.50;0.60;;;;;;;;;;20871619;28;20295;-82
2023/05/17 19:02:27;;;;;;;4.07;0.80;;;;;;;;;;20899874;28;20234;-82
2023/05/17 19:12:30;;;;;;;2.13;0.80;;;;;;;;;;20843586;28;20238;-84
2023/05/17 19:22:31;;;;;;;2.30;0.70;;;;;;;;;;20803555;28;20242;-83
2023/05/17 19:32:33;;;;;;;2.30;0.90;;;;;;;;;;20844975;28;20213;-84
2023/05/17 19:42:38;;;;;;;1.93;0.70;;;;;;;;;;20885211;28;20230;-83
2023/05/17 19:52:40;;;;;;;3.33;0.90;;;;;;;;;;20916646;28;20225;-83
2023/05/17 20:02:42;;;;;;;1.60;0.57;;;;;;;;;;20980917;28;20645;-83
2023/05/17 20:12:44;;;;;;;1.20;0.50;;;;;;;;;;20873047;28;20564;-83
2023/05/17 20:22:45;;;;;;;2.27;0.80;;;;;;;;;;20905103;28;20695;-82
2023/05/17 20:32:47;;;;;;;2.37;1.03;;;;;;;;;;20907742;28;20279;-83
2023/05/17 20:42:51;;;;;;;3.30;0.93;;;;;;;;;;20906583;28;20225;-82
2023/05/17 20:52:53;;;;;;;2.07;0.90;;;;;;;;;;20890367;28;20221;-82
2023/05/17 21:02:55;;;;;;;1.90;0.93;;;;;;;;;;20890247;28;20299;-82
2023/05/17 21:12:56;;;;;;;2.50;0.90;;;16.00;99.90;;;;;;20910713;28;20229;-82
2023/05/17 21:22:58;;;;;;;3.63;1.07;;;;;;;;;;20889312;28;20683;-83
2023/05/17 21:33:00;;;;;;;3.80;1.00;;;;;;;;;;20927880;28;20229;-84
2023/05/17 21:43:13;;;;;;;;;;;;;;;;;;;;;
2023/05/17 21:53:46;;;;;;;3.03;0.80;;;;;;;;;;20898657;28;20263;-83
2023/05/17 22:04:13;;;;;;;1.73;0.67;;;;;;;;;;20894177;28;20256;-84
2023/05/17 22:14:15;;;;;;;0.97;0.63;;;;;;;;;;20888962;28;20348;-84
2023/05/17 22:24:18;;;;;;;3.40;1.10;;;;;;;;;;20896019;28;20295;-83
2023/05/17 22:34:20;;;;;;;1.70;0.70;;;;;;;;;;20920729;28;20684;-82
2023/05/17 22:44:22;;;;;;;3.10;0.83;;;;;;;;;;20921102;28;20283;-84
2023/05/17 22:54:25;;;;;;;0.90;0.60;;;;;;;;;;20897883;28;20279;-83
2023/05/17 23:04:28;;;;;;;1.53;0.60;;;;;;;;;;20892027;28;20221;-84
2023/05/17 23:14:30;;;;;;;2.40;0.77;;;;;;;;;;20923868;28;20234;-84
2023/05/17 23:24:37;;;;;;;1.77;0.70;;;;;;;;;;20920736;28;20268;-84
2023/05/17 23:34:38;;;;;;;1.67;0.70;;;;;;;;;;20882890;28;20214;-86
2023/05/17 23:44:41;;;;;;;2.37;0.60;;;;;;;;;;20893538;28;20248;-84
2023/05/17 23:54:43;;;;;;;2.70;0.63;;;;;;;;;;20962398;28;20283;-82
